Gualeguaychu, Argentina
Current Conditions -  °F | °C
As of 4:00 PM on Friday 31 Oct 2014 (Local Time) from SADF Reporting Station
Scattered Clouds Scattered Clouds  
Wind Chill: 72°   Ceiling: Unl
Heat Index: 72°   Visibility: 6mi
Dew Point: 52°   Wind: 9mph
Humidity: 50%   Direction: 90°E
Pressure: 29.94"   Gusts: NA
Location:  33.02°S, 58.52°W
Report Text: SADF 311900Z 09008KT 9999 SCT020 SCT10022/11 Q1014
Loading
Personal Weather Stations






























Interactive Weather Map
Tropical Storm Tracking
New forecast layout! Learn more

10-Day Weather Forecast

Advertisements
Track Severe Weather on mobile